JBU1235 TBPB-KFLL
Flight info
| Callsign | JBU1235 |
|---|---|
| Flight time | N/A |
| Altitude | 34000 |
| Route | GEECE L466 MEEGL Y421 HAGIT Y352 ZQA OLAHS3 |
| Aircraft | A321/M-SDE3FGHIRWY/LB1 |
Departure
| Time | 2026-05-07 00:02 |
|---|---|
| Airport | Grantley Adams International Airport (TBPB) |
Arrival
| Time | N/A |
|---|---|
| Airport | Fort Lauderdale Hollywood International Airport (KFLL) |
| Time | Latitude | Longitude | Altitude | Speed | Heading |
|---|---|---|---|---|---|
| 2026-05-06 22:58 | 13.07898 | -59.48689 | 178 ft | 0 kts | 346° |
| 2026-05-06 23:51 | 13.07889 | -59.48687 | 178 ft | 4 kts | 346° |
| 2026-05-06 23:51 | 13.07863 | -59.48680 | 178 ft | 4 kts | 346° |
| 2026-05-06 23:52 | 13.07837 | -59.48673 | 177 ft | 4 kts | 346° |
| 2026-05-06 23:52 | 13.07814 | -59.48667 | 177 ft | 4 kts | 335° |
| 2026-05-06 23:52 | 13.07798 | -59.48652 | 177 ft | 4 kts | 272° |
| 2026-05-06 23:52 | 13.07801 | -59.48630 | 177 ft | 1 kts | 256° |
| 2026-05-06 23:53 | 13.07802 | -59.48626 | 177 ft | 0 kts | 256° |
| 2026-05-06 23:55 | 13.07798 | -59.48641 | 177 ft | 5 kts | 257° |
| 2026-05-06 23:55 | 13.07784 | -59.48701 | 177 ft | 12 kts | 253° |
| 2026-05-06 23:55 | 13.07734 | -59.48790 | 177 ft | 16 kts | 245° |
| 2026-05-06 23:56 | 13.07706 | -59.48886 | 177 ft | 13 kts | 255° |
| 2026-05-06 23:56 | 13.07687 | -59.48965 | 178 ft | 10 kts | 257° |
| 2026-05-06 23:56 | 13.07669 | -59.49047 | 178 ft | 14 kts | 257° |
| 2026-05-06 23:56 | 13.07642 | -59.49155 | 178 ft | 17 kts | 255° |
| 2026-05-06 23:57 | 13.07609 | -59.49289 | 178 ft | 21 kts | 256° |
| 2026-05-06 23:57 | 13.07570 | -59.49451 | 177 ft | 26 kts | 256° |
| 2026-05-06 23:57 | 13.07523 | -59.49644 | 178 ft | 30 kts | 256° |
| 2026-05-06 23:57 | 13.07470 | -59.49860 | 178 ft | 33 kts | 256° |
| 2026-05-06 23:58 | 13.07410 | -59.50102 | 178 ft | 37 kts | 256° |
| 2026-05-06 23:58 | 13.07347 | -59.50360 | 178 ft | 37 kts | 256° |
| 2026-05-06 23:58 | 13.07296 | -59.50555 | 178 ft | 20 kts | 252° |
| 2026-05-06 23:58 | 13.07279 | -59.50606 | 178 ft | 6 kts | 252° |
| 2026-05-06 23:59 | 13.07268 | -59.50662 | 178 ft | 10 kts | 257° |
| 2026-05-06 23:59 | 13.07229 | -59.50723 | 177 ft | 11 kts | 202° |
| 2026-05-06 23:59 | 13.07155 | -59.50709 | 177 ft | 11 kts | 164° |
| 2026-05-06 23:59 | 13.07106 | -59.50675 | 178 ft | 7 kts | 99° |
| 2026-05-07 00:00 | 13.07118 | -59.50625 | 178 ft | 8 kts | 73° |
| 2026-05-07 00:00 | 13.07120 | -59.50617 | 178 ft | 0 kts | 73° |
| 2026-05-07 00:01 | 13.07133 | -59.50571 | 178 ft | 31 kts | 75° |
| 2026-05-07 00:01 | 13.07243 | -59.50120 | 179 ft | 97 kts | 76° |
| 2026-05-07 00:01 | 13.07453 | -59.49253 | 176 ft | 150 kts | 76° |
| 2026-05-07 00:02 | 13.07709 | -59.48191 | 725 ft | 146 kts | 77° |
| 2026-05-07 00:02 | 13.07919 | -59.47197 | 1414 ft | 138 kts | 78° |
| 2026-05-07 00:02 | 13.08136 | -59.46230 | 1899 ft | 148 kts | 75° |
| 2026-05-07 00:02 | 13.08547 | -59.45202 | 2081 ft | 168 kts | 50° |
| 2026-05-07 00:03 | 13.09642 | -59.44600 | 2235 ft | 198 kts | 12° |
| 2026-05-07 00:03 | 13.11093 | -59.44844 | 2382 ft | 231 kts | 339° |
| 2026-05-07 00:03 | 13.12411 | -59.45938 | 2642 ft | 254 kts | 316° |
| 2026-05-07 00:03 | 13.13594 | -59.47298 | 3153 ft | 258 kts | 314° |
| 2026-05-07 00:04 | 13.14706 | -59.48759 | 3657 ft | 263 kts | 301° |
| 2026-05-07 00:04 | 13.15374 | -59.50527 | 4168 ft | 268 kts | 290° |
| 2026-05-07 00:04 | 13.15918 | -59.52357 | 4694 ft | 270 kts | 288° |